Time;durP1;ratioP1;P1;durP2;ratioP2;P2;SDS_P1;SDS_P2;PMS_P1;PMS_P2;Temp;Humidity;BMP_temperature;BMP_pressure;BME280_temperature;BME280_humidity;BME280_pressure;Samples;Min_cycle;Max_cycle;Signal;HPM_P1;HPM_P2
2021/06/07 00:01:35;;;;;;;46.63;25.87;;;17.70;99.90;;;;;;4183001;28;20299;-77
2021/06/07 00:03:37;;;;;;;51.00;25.93;;;17.70;99.90;;;;;;4182561;28;20205;-77
2021/06/07 00:05:39;;;;;;;47.73;26.13;;;17.70;99.90;;;;;;4179033;28;20210;-77
2021/06/07 00:07:40;;;;;;;48.47;25.50;;;17.60;99.90;;;;;;4178501;28;20214;-77
2021/06/07 00:09:42;;;;;;;51.43;25.13;;;17.60;99.90;;;;;;4180050;28;20210;-77
2021/06/07 00:11:46;;;;;;;48.53;25.30;;;17.60;99.90;;;;;;4179336;28;20666;-77
2021/06/07 00:13:48;;;;;;;44.17;24.93;;;17.60;99.90;;;;;;4179338;28;20671;-77
2021/06/07 00:15:49;;;;;;;49.57;25.37;;;17.60;99.90;;;;;;4176300;28;20214;-77
2021/06/07 00:17:51;;;;;;;46.00;24.53;;;17.60;99.90;;;;;;4173556;28;20652;-78
2021/06/07 00:19:52;;;;;;;51.43;26.03;;;17.50;99.90;;;;;;4178300;28;20217;-77
2021/06/07 00:21:55;;;;;;;49.27;25.93;;;17.50;99.90;;;;;;4180186;28;20299;-77
2021/06/07 00:23:58;;;;;;;44.57;23.93;;;17.50;99.90;;;;;;4177237;28;20206;-78
2021/06/07 00:25:59;;;;;;;45.70;25.07;;;17.50;99.90;;;;;;4178630;28;20217;-77
2021/06/07 00:28:01;;;;;;;42.13;23.80;;;17.50;99.90;;;;;;4178048;28;20592;-77
2021/06/07 00:30:04;;;;;;;43.53;24.27;;;17.50;99.90;;;;;;4177941;28;20221;-77
2021/06/07 00:32:06;;;;;;;48.40;26.40;;;17.50;99.90;;;;;;4204156;22;20706;-74
2021/06/07 00:34:09;;;;;;;48.80;26.10;;;17.50;99.90;;;;;;4193339;28;20218;-72
2021/06/07 00:36:12;;;;;;;52.60;26.33;;;17.40;99.90;;;;;;4196240;28;20561;-71
2021/06/07 00:38:14;;;;;;;47.93;25.13;;;17.40;99.90;;;;;;4196551;28;20733;-71
2021/06/07 00:40:16;;;;;;;45.73;24.70;;;17.40;99.90;;;;;;4196772;28;20573;-72
2021/06/07 00:42:17;;;;;;;47.90;24.93;;;17.40;99.90;;;;;;4196512;28;20229;-72
2021/06/07 00:44:23;;;;;;;43.80;24.60;;;17.40;99.90;;;;;;4190387;28;20689;-71
2021/06/07 00:46:25;;;;;;;44.03;24.93;;;17.40;99.90;;;;;;4195327;28;20259;-71
2021/06/07 00:48:27;;;;;;;47.17;26.20;;;17.40;99.90;;;;;;4196519;28;20212;-71
2021/06/07 00:50:34;;;;;;;42.93;24.47;;;17.40;99.90;;;;;;4196025;28;20231;-71
2021/06/07 00:52:35;;;;;;;43.07;23.83;;;17.40;99.90;;;;;;4192444;28;20581;-71
2021/06/07 00:54:38;;;;;;;45.20;25.47;;;17.40;99.90;;;;;;4196102;28;20202;-73
2021/06/07 00:56:40;;;;;;;44.70;25.37;;;17.40;99.90;;;;;;4195910;28;20210;-72
2021/06/07 00:58:44;;;;;;;44.67;24.40;;;17.40;99.90;;;;;;4196682;28;20208;-72
2021/06/07 01:00:47;;;;;;;44.90;24.03;;;17.40;99.90;;;;;;4193977;28;20240;-72
2021/06/07 01:02:51;;;;;;;43.77;24.47;;;17.40;99.90;;;;;;4195874;28;20214;-72
2021/06/07 01:04:52;;;;;;;46.73;25.10;;;17.50;99.90;;;;;;4198749;28;20690;-72
2021/06/07 01:06:53;;;;;;;45.67;24.03;;;17.50;99.90;;;;;;4198729;28;20285;-72
2021/06/07 01:08:54;;;;;;;39.60;22.80;;;17.50;99.90;;;;;;4198132;28;20210;-72
2021/06/07 01:10:57;;;;;;;42.37;24.43;;;17.50;99.90;;;;;;4196251;28;20294;-72
2021/06/07 01:13:00;;;;;;;45.73;24.40;;;17.50;99.90;;;;;;4199489;28;20579;-72
2021/06/07 01:15:01;;;;;;;45.13;25.47;;;17.50;99.90;;;;;;4197972;28;20206;-72
2021/06/07 01:17:02;;;;;;;42.67;24.23;;;17.50;99.90;;;;;;4197097;28;20220;-72
2021/06/07 01:19:05;;;;;;;42.60;25.20;;;17.50;99.90;;;;;;4208783;28;20692;-72
2021/06/07 01:21:09;;;;;;;44.77;24.90;;;17.50;99.90;;;;;;4194866;28;20533;-72
2021/06/07 01:23:12;;;;;;;45.03;25.37;;;17.50;99.90;;;;;;4199435;28;20284;-72
2021/06/07 01:25:17;;;;;;;44.47;24.40;;;17.50;99.90;;;;;;4198711;28;20213;-72
2021/06/07 01:27:18;;;;;;;43.63;24.63;;;17.50;99.90;;;;;;4198923;28;20217;-71
2021/06/07 01:29:20;;;;;;;41.53;23.53;;;17.50;99.90;;;;;;4192374;28;20263;-72
2021/06/07 01:31:22;;;;;;;44.70;24.57;;;17.50;99.90;;;;;;4197881;28;20772;-72
2021/06/07 01:33:25;;;;;;;42.97;24.87;;;17.50;99.90;;;;;;4198950;28;20214;-72
2021/06/07 01:35:27;;;;;;;44.07;26.40;;;17.50;99.90;;;;;;4185267;28;20207;-72
2021/06/07 01:37:28;;;;;;;41.73;24.20;;;17.50;99.90;;;;;;4194109;28;20206;-72
2021/06/07 01:39:31;;;;;;;44.50;24.47;;;17.50;99.90;;;;;;4197827;28;20727;-72
2021/06/07 01:41:32;;;;;;;43.57;24.20;;;17.50;99.90;;;;;;4197964;28;20233;-72
2021/06/07 01:43:35;;;;;;;43.33;25.60;;;17.50;99.90;;;;;;4199278;28;20209;-72
2021/06/07 01:45:38;;;;;;;47.60;26.07;;;17.50;99.90;;;;;;4198055;28;20213;-72
2021/06/07 01:47:40;;;;;;;42.10;24.53;;;17.50;99.90;;;;;;4198133;28;20209;-72
2021/06/07 01:49:41;;;;;;;42.93;24.97;;;17.50;99.90;;;;;;4198654;28;20684;-71
2021/06/07 01:51:42;;;;;;;44.50;24.80;;;17.40;99.90;;;;;;4204725;28;20243;-71
2021/06/07 01:53:46;;;;;;;47.50;25.47;;;17.50;99.90;;;;;;4198632;28;20212;-72
2021/06/07 01:55:50;;;;;;;44.20;25.20;;;17.50;99.90;;;;;;4198404;28;20212;-72
2021/06/07 01:57:53;;;;;;;47.97;25.50;;;17.50;99.90;;;;;;4193121;28;20206;-72
2021/06/07 01:59:54;;;;;;;44.97;25.20;;;17.40;99.90;;;;;;4198104;28;20210;-72
2021/06/07 02:01:55;;;;;;;44.93;25.93;;;17.50;99.90;;;;;;4198108;28;20240;-72
2021/06/07 02:03:57;;;;;;;49.67;26.33;;;17.40;99.90;;;;;;4196018;28;20299;-72
2021/06/07 02:05:59;;;;;;;47.07;26.37;;;17.50;99.90;;;;;;4193372;28;20694;-72
2021/06/07 02:08:05;;;;;;;49.20;26.77;;;17.40;99.90;;;;;;4198554;28;20213;-72
2021/06/07 02:10:07;;;;;;;51.73;27.10;;;17.40;99.90;;;;;;4199068;28;20217;-72
2021/06/07 02:12:11;;;;;;;47.87;26.50;;;17.40;99.90;;;;;;4199218;28;20633;-71
2021/06/07 02:14:12;;;;;;;49.10;27.40;;;17.40;99.90;;;;;;4197345;28;20583;-72
2021/06/07 02:16:16;;;;;;;49.97;27.03;;;17.40;99.90;;;;;;4195241;28;20220;-72
2021/06/07 02:18:18;;;;;;;47.87;26.93;;;17.40;99.90;;;;;;4204239;28;20208;-72
2021/06/07 02:20:22;;;;;;;50.07;28.47;;;17.30;99.90;;;;;;4203928;28;20209;-71
2021/06/07 02:22:23;;;;;;;46.23;26.73;;;17.30;99.90;;;;;;4207175;28;20692;-72
2021/06/07 02:24:24;;;;;;;48.23;27.37;;;17.30;99.90;;;;;;4190717;28;20670;-72
2021/06/07 02:26:27;;;;;;;46.53;26.23;;;17.30;99.90;;;;;;4197788;28;20557;-72
2021/06/07 02:28:29;;;;;;;48.57;27.10;;;17.30;99.90;;;;;;4196779;28;20209;-72
2021/06/07 02:30:31;;;;;;;49.67;26.70;;;17.30;99.90;;;;;;4197321;28;20610;-72
2021/06/07 02:32:32;;;;;;;48.13;27.80;;;17.30;99.90;;;;;;4189496;28;20230;-72
2021/06/07 02:34:33;;;;;;;53.13;28.53;;;17.30;99.90;;;;;;4198207;28;20206;-71
2021/06/07 02:36:37;;;;;;;48.73;27.63;;;17.30;99.90;;;;;;4195550;28;20227;-71
2021/06/07 02:38:38;;;;;;;50.17;27.67;;;17.30;99.90;;;;;;4197910;28;20648;-72
2021/06/07 02:40:41;;;;;;;56.50;28.53;;;17.30;99.90;;;;;;4186093;28;20234;-71
2021/06/07 02:42:42;;;;;;;50.20;28.87;;;17.30;99.90;;;;;;4186843;28;20217;-71
2021/06/07 02:44:48;;;;;;;51.40;28.40;;;17.20;99.90;;;;;;4198217;28;20209;-71
2021/06/07 02:46:49;;;;;;;47.93;27.23;;;17.20;99.90;;;;;;4199039;28;20212;-71
2021/06/07 02:48:51;;;;;;;51.57;28.33;;;17.20;99.90;;;;;;4196515;28;20728;-72
2021/06/07 02:50:52;;;;;;;53.87;27.83;;;17.20;99.90;;;;;;4197564;28;20262;-71
2021/06/07 02:52:53;;;;;;;48.60;27.77;;;17.20;99.90;;;;;;4197384;28;20559;-71
2021/06/07 02:54:55;;;;;;;52.73;28.87;;;17.30;99.90;;;;;;4202555;28;20213;-71
2021/06/07 02:56:56;;;;;;;51.63;28.43;;;17.20;99.90;;;;;;4193136;28;20220;-71
2021/06/07 02:58:57;;;;;;;49.03;28.33;;;17.20;99.90;;;;;;4196883;28;20546;-70
2021/06/07 03:01:02;;;;;;;50.47;28.47;;;17.20;99.90;;;;;;4197207;28;20247;-71
2021/06/07 03:03:05;;;;;;;52.53;28.77;;;17.20;99.90;;;;;;4196665;28;20204;-71
2021/06/07 03:05:07;;;;;;;53.80;29.30;;;17.20;99.90;;;;;;4197681;28;20206;-70
2021/06/07 03:07:08;;;;;;;53.80;28.97;;;17.20;99.90;;;;;;4210455;28;20217;-71
2021/06/07 03:09:10;;;;;;;54.23;29.57;;;17.20;99.90;;;;;;4196511;28;20223;-71
2021/06/07 03:11:12;;;;;;;58.20;30.87;;;17.10;99.90;;;;;;4198049;28;20299;-71
2021/06/07 03:13:13;;;;;;;55.10;29.70;;;17.10;99.90;;;;;;4197109;28;20610;-73
2021/06/07 03:15:16;;;;;;;52.07;29.03;;;17.10;99.90;;;;;;4182129;28;20239;-71
2021/06/07 03:17:19;;;;;;;55.07;30.30;;;17.10;99.90;;;;;;4195478;28;20723;-72
2021/06/07 03:19:20;;;;;;;55.90;29.83;;;17.10;99.90;;;;;;4198714;28;20223;-71
2021/06/07 03:21:22;;;;;;;49.83;28.67;;;17.10;99.90;;;;;;4197261;28;20697;-72
2021/06/07 03:23:26;;;;;;;55.80;30.03;;;17.10;99.90;;;;;;4194524;28;20282;-71
2021/06/07 03:25:28;;;;;;;51.87;28.90;;;17.20;99.90;;;;;;4196702;28;20270;-71
2021/06/07 03:27:30;;;;;;;51.83;29.40;;;17.20;99.90;;;;;;4192448;28;20416;-70
2021/06/07 03:29:34;;;;;;;52.23;29.60;;;17.20;99.90;;;;;;4192959;28;20216;-74
2021/06/07 03:31:35;;;;;;;57.33;29.50;;;17.20;99.90;;;;;;4200451;28;20694;-71
2021/06/07 03:33:37;;;;;;;56.03;30.43;;;17.20;99.90;;;;;;4197792;28;20206;-72
2021/06/07 03:35:41;;;;;;;51.93;29.13;;;17.20;99.90;;;;;;4196951;28;20216;-73
2021/06/07 03:37:42;;;;;;;58.77;30.67;;;17.20;99.90;;;;;;4196230;28;20232;-71
2021/06/07 03:39:43;;;;;;;55.87;29.67;;;17.20;99.90;;;;;;4196710;28;20213;-71
2021/06/07 03:41:44;;;;;;;58.33;31.80;;;17.20;99.90;;;;;;4190360;28;20701;-73
2021/06/07 03:43:46;;;;;;;56.00;30.57;;;17.20;99.90;;;;;;4194770;28;20722;-70
2021/06/07 03:45:47;;;;;;;53.87;30.70;;;17.20;99.90;;;;;;4197049;28;20211;-71
2021/06/07 03:47:49;;;;;;;53.90;30.50;;;17.20;99.90;;;;;;4197731;28;20209;-73
2021/06/07 03:49:51;;;;;;;54.83;30.73;;;17.30;99.90;;;;;;4193812;28;20205;-70
2021/06/07 03:51:53;;;;;;;52.50;29.83;;;17.30;99.90;;;;;;4196636;28;20222;-71
2021/06/07 03:53:54;;;;;;;52.73;28.63;;;17.30;99.90;;;;;;4195962;28;20208;-72
2021/06/07 03:55:55;;;;;;;53.43;29.43;;;17.30;99.90;;;;;;4196333;28;20225;-71
2021/06/07 03:57:57;;;;;;;57.37;30.90;;;17.30;99.90;;;;;;4195608;28;20569;-71
2021/06/07 03:59:58;;;;;;;56.23;29.93;;;17.40;99.90;;;;;;4195967;28;20220;-71
2021/06/07 04:02:03;;;;;;;52.77;29.10;;;17.40;99.90;;;;;;4196336;28;20717;-71
2021/06/07 04:04:04;;;;;;;52.27;29.47;;;17.40;99.90;;;;;;4197153;28;20235;-70
2021/06/07 04:06:07;;;;;;;53.27;30.03;;;17.40;99.90;;;;;;4196342;28;20218;-71
2021/06/07 04:08:11;;;;;;;53.93;29.97;;;17.40;99.90;;;;;;4187259;28;20210;-70
2021/06/07 04:10:15;;;;;;;54.87;30.57;;;17.40;99.90;;;;;;4197607;28;20713;-71
2021/06/07 04:12:16;;;;;;;51.20;29.27;;;17.50;99.90;;;;;;4195603;28;20226;-71
2021/06/07 04:14:17;;;;;;;54.57;30.10;;;17.50;99.90;;;;;;4196284;28;20217;-71
2021/06/07 04:16:19;;;;;;;57.10;30.17;;;17.50;99.90;;;;;;4184897;28;20225;-74
2021/06/07 04:18:20;;;;;;;51.80;28.93;;;17.50;99.90;;;;;;4196668;28;20245;-71
2021/06/07 04:20:24;;;;;;;57.07;30.90;;;17.60;99.90;;;;;;4196418;28;20212;-72
2021/06/07 04:22:27;;;;;;;50.77;29.80;;;17.60;99.90;;;;;;4195329;28;20268;-71
2021/06/07 04:24:28;;;;;;;53.43;30.50;;;17.60;99.90;;;;;;4196690;28;20235;-72
2021/06/07 04:26:29;;;;;;;51.33;30.07;;;17.60;99.90;;;;;;4196019;28;20666;-71
2021/06/07 04:28:33;;;;;;;53.50;30.67;;;17.60;99.90;;;;;;4195777;28;20220;-71
2021/06/07 04:30:34;;;;;;;52.67;30.60;;;17.70;99.90;;;;;;4198605;28;20546;-72
2021/06/07 04:32:36;;;;;;;50.60;29.67;;;17.70;99.90;;;;;;4196215;28;20238;-71
2021/06/07 04:34:37;;;;;;;55.00;29.70;;;17.70;99.90;;;;;;4197731;28;20224;-71
2021/06/07 04:36:39;;;;;;;52.60;29.93;;;17.80;99.90;;;;;;4200968;28;20259;-71
2021/06/07 04:38:41;;;;;;;54.03;30.10;;;17.80;99.90;;;;;;4195350;28;20213;-71
2021/06/07 04:40:44;;;;;;;53.27;30.37;;;17.80;99.90;;;;;;4193273;28;20239;-72
2021/06/07 04:42:46;;;;;;;50.67;29.40;;;17.80;99.90;;;;;;4195805;28;20645;-71
2021/06/07 04:44:47;;;;;;;50.47;29.57;;;17.90;99.90;;;;;;4194930;28;20209;-71
2021/06/07 04:46:48;;;;;;;53.60;30.87;;;17.90;99.90;;;;;;4192766;28;20206;-72
2021/06/07 04:48:49;;;;;;;50.17;29.30;;;17.90;99.90;;;;;;4196578;28;20289;-71
2021/06/07 04:50:53;;;;;;;53.83;30.07;;;17.90;99.90;;;;;;4194213;28;20208;-71
2021/06/07 04:52:58;;;;;;;54.07;29.63;;;17.90;99.90;;;;;;4193566;28;20274;-72
2021/06/07 04:55:00;;;;;;;54.53;29.83;;;18.00;99.90;;;;;;4193737;28;20621;-71
2021/06/07 04:57:02;;;;;;;51.87;29.87;;;18.00;99.90;;;;;;4198004;28;20205;-71
2021/06/07 04:59:03;;;;;;;54.67;31.67;;;18.00;99.90;;;;;;4201442;28;20220;-71
2021/06/07 05:01:08;;;;;;;53.10;29.23;;;18.00;99.90;;;;;;4194741;28;20240;-71
2021/06/07 05:03:09;;;;;;;56.47;29.77;;;18.00;99.90;;;;;;4196098;28;20201;-71
2021/06/07 05:05:12;;;;;;;55.57;31.13;;;18.10;99.90;;;;;;4195086;28;20201;-71
2021/06/07 05:07:13;;;;;;;53.33;30.20;;;18.10;99.90;;;;;;4184209;28;20272;-72
2021/06/07 05:09:14;;;;;;;54.70;29.57;;;18.10;99.90;;;;;;4194778;28;20202;-71
2021/06/07 05:11:16;;;;;;;51.20;30.47;;;18.20;99.90;;;;;;4194873;28;20721;-71
2021/06/07 05:13:18;;;;;;;51.07;29.83;;;18.20;99.90;;;;;;4196429;28;20202;-71
2021/06/07 05:15:20;;;;;;;57.07;30.47;;;18.20;99.90;;;;;;4187122;28;20218;-72
2021/06/07 05:17:22;;;;;;;54.20;30.60;;;18.20;99.90;;;;;;4195161;28;20209;-72
2021/06/07 05:19:23;;;;;;;54.13;30.07;;;18.30;99.90;;;;;;4195549;28;20216;-71
2021/06/07 05:21:25;;;;;;;54.87;30.87;;;18.30;99.90;;;;;;4195535;28;20240;-71
2021/06/07 05:23:26;;;;;;;50.87;30.47;;;18.30;99.90;;;;;;4193126;28;20258;-71
2021/06/07 05:25:29;;;;;;;53.07;30.93;;;18.30;99.90;;;;;;4196731;28;20210;-72
2021/06/07 05:27:32;;;;;;;57.33;31.60;;;18.30;99.90;;;;;;4196025;28;20225;-71
2021/06/07 05:29:33;;;;;;;54.13;30.80;;;18.40;99.90;;;;;;4196878;28;20213;-71
2021/06/07 05:31:34;;;;;;;53.03;31.53;;;18.40;99.90;;;;;;4196710;28;20287;-71
2021/06/07 05:33:35;;;;;;;53.17;30.67;;;18.40;99.90;;;;;;4195245;28;20202;-72
2021/06/07 05:35:40;;;;;;;53.87;31.67;;;18.40;99.90;;;;;;4195325;28;20206;-71
2021/06/07 05:37:42;;;;;;;49.93;30.77;;;18.40;99.90;;;;;;4196141;28;20296;-71
2021/06/07 05:39:43;;;;;;;52.70;30.60;;;18.40;99.90;;;;;;4191534;28;20221;-71
2021/06/07 05:41:44;;;;;;;49.77;29.40;;;18.50;99.90;;;;;;4195889;28;20266;-71
2021/06/07 05:43:46;;;;;;;45.80;28.40;;;18.60;99.90;;;;;;4197004;28;20206;-72
2021/06/07 05:45:48;;;;;;;48.70;29.03;;;18.60;99.90;;;;;;4196132;28;20214;-72
2021/06/07 05:47:49;;;;;;;49.20;28.90;;;18.60;99.90;;;;;;4192391;28;20675;-72
2021/06/07 05:49:50;;;;;;;49.30;29.83;;;18.70;99.90;;;;;;4190233;28;20251;-72
2021/06/07 05:51:52;;;;;;;49.77;30.40;;;18.70;99.90;;;;;;4193964;28;20752;-72
2021/06/07 05:53:53;;;;;;;51.40;31.80;;;18.70;99.90;;;;;;4203171;28;20218;-72
2021/06/07 05:55:54;;;;;;;49.50;30.77;;;18.70;99.90;;;;;;4198823;28;20221;-73
2021/06/07 05:57:56;;;;;;;46.03;29.30;;;18.80;99.90;;;;;;4202099;28;20214;-73
2021/06/07 05:59:59;;;;;;;46.33;29.47;;;18.80;99.90;;;;;;4202303;28;20240;-73
2021/06/07 06:02:00;;;;;;;49.23;30.23;;;18.80;99.90;;;;;;4201582;28;20221;-71
2021/06/07 06:04:02;;;;;;;89.93;57.43;;;18.70;99.90;;;;;;4197714;28;20209;-72
2021/06/07 06:06:04;;;;;;;113.63;72.03;;;18.80;99.90;;;;;;4195146;28;20222;-74
2021/06/07 06:08:06;;;;;;;85.00;51.87;;;18.80;99.90;;;;;;4192945;28;20480;-74
2021/06/07 06:10:08;;;;;;;65.60;41.60;;;18.80;99.90;;;;;;4179361;28;20274;-73
2021/06/07 06:12:09;;;;;;;55.80;34.87;;;18.90;99.90;;;;;;4184554;28;20230;-74
2021/06/07 06:14:11;;;;;;;52.27;33.30;;;18.90;99.90;;;;;;4192741;28;20211;-74
2021/06/07 06:16:13;;;;;;;51.20;31.27;;;18.90;99.90;;;;;;4197734;28;20575;-74
2021/06/07 06:18:14;;;;;;;44.70;28.80;;;19.00;99.90;;;;;;4199351;28;20218;-74
2021/06/07 06:20:17;;;;;;;44.33;28.80;;;19.00;99.90;;;;;;4189230;28;20248;-74
2021/06/07 06:22:18;;;;;;;48.00;29.53;;;19.00;99.90;;;;;;4193433;28;20237;-74
2021/06/07 06:24:19;;;;;;;44.60;28.47;;;19.00;99.90;;;;;;4193130;28;20210;-74
2021/06/07 06:26:21;;;;;;;44.43;27.43;;;19.00;99.90;;;;;;4191212;28;20210;-74
2021/06/07 06:28:22;;;;;;;45.70;29.00;;;19.10;99.90;;;;;;4193491;28;20596;-74
2021/06/07 06:30:26;;;;;;;42.80;27.70;;;19.10;99.90;;;;;;4193456;28;20206;-74
2021/06/07 06:32:29;;;;;;;41.53;27.30;;;19.10;99.90;;;;;;4179783;22;20240;-76
2021/06/07 06:34:30;;;;;;;47.83;28.43;;;19.20;99.90;;;;;;4147138;28;20223;-75
2021/06/07 06:36:32;;;;;;;44.30;27.17;;;19.30;99.90;;;;;;4149250;28;20208;-74
2021/06/07 06:38:33;;;;;;;45.17;27.67;;;19.30;99.90;;;;;;4147350;28;20228;-73
2021/06/07 06:40:37;;;;;;;54.00;35.70;;;19.30;99.90;;;;;;4147139;28;20211;-77
2021/06/07 06:42:39;;;;;;;68.47;43.80;;;19.30;99.90;;;;;;4155118;28;20676;-75
2021/06/07 06:44:40;;;;;;;63.23;39.97;;;19.30;99.90;;;;;;4138687;28;20766;-75
2021/06/07 06:46:41;;;;;;;55.93;34.13;;;19.30;99.90;;;;;;4135788;28;20571;-75
2021/06/07 06:48:44;;;;;;;56.73;31.67;;;19.20;99.90;;;;;;4136813;28;20268;-75
2021/06/07 06:50:47;;;;;;;49.97;29.93;;;19.30;99.90;;;;;;4140474;28;20216;-75
2021/06/07 06:52:48;;;;;;;45.57;28.63;;;19.30;99.90;;;;;;4131263;28;20829;-75
2021/06/07 06:54:49;;;;;;;44.40;27.40;;;19.30;99.90;;;;;;4141467;28;20258;-75
2021/06/07 06:56:51;;;;;;;42.27;27.47;;;19.30;99.90;;;;;;4141403;28;20606;-75
2021/06/07 06:58:52;;;;;;;44.73;27.63;;;19.30;99.90;;;;;;4141864;28;20307;-75
2021/06/07 07:00:53;;;;;;;42.33;27.43;;;19.20;99.90;;;;;;4136081;28;20209;-75
2021/06/07 07:02:54;;;;;;;42.90;26.87;;;19.30;99.90;;;;;;4150509;28;20229;-75
2021/06/07 07:04:57;;;;;;;42.40;26.83;;;19.30;99.90;;;;;;4134421;28;20209;-75
2021/06/07 07:06:58;;;;;;;40.20;26.67;;;19.30;99.90;;;;;;4134675;28;20586;-75
2021/06/07 07:08:59;;;;;;;42.37;26.03;;;19.40;99.90;;;;;;4135162;28;20695;-75
2021/06/07 07:11:01;;;;;;;38.23;25.70;;;19.50;99.90;;;;;;4136109;28;20250;-75
2021/06/07 07:13:03;;;;;;;35.13;24.43;;;19.60;99.90;;;;;;4137415;28;20223;-75
2021/06/07 07:15:06;;;;;;;38.47;25.40;;;19.70;99.90;;;;;;4132450;28;20570;-75
2021/06/07 07:17:08;;;;;;;36.33;24.57;;;19.80;99.90;;;;;;4138946;28;20692;-75
2021/06/07 07:19:09;;;;;;;37.57;25.47;;;19.90;99.90;;;;;;4125980;28;20297;-75
2021/06/07 07:21:12;;;;;;;36.10;24.83;;;20.10;99.90;;;;;;4138027;28;20217;-75
2021/06/07 07:23:13;;;;;;;37.83;25.43;;;20.20;99.90;;;;;;4138489;28;20219;-75
2021/06/07 07:25:15;;;;;;;38.40;25.30;;;20.20;99.90;;;;;;4134696;28;20652;-75
2021/06/07 07:27:18;;;;;;;38.23;26.03;;;20.30;99.90;;;;;;4141593;28;20225;-75
2021/06/07 07:29:19;;;;;;;35.70;25.23;;;20.30;99.90;;;;;;4140156;28;20272;-75
2021/06/07 07:31:20;;;;;;;37.53;25.77;;;20.30;99.90;;;;;;4139192;28;20217;-75
2021/06/07 07:33:22;;;;;;;35.27;24.60;;;20.40;99.90;;;;;;4139192;28;20218;-75
2021/06/07 07:35:25;;;;;;;37.83;25.00;;;20.40;99.90;;;;;;4134705;28;20354;-75
2021/06/07 07:37:27;;;;;;;37.40;24.50;;;20.40;99.90;;;;;;4140700;28;20216;-75
2021/06/07 07:39:29;;;;;;;38.80;24.53;;;20.50;99.90;;;;;;4139935;28;20576;-75
2021/06/07 07:41:30;;;;;;;36.83;24.93;;;20.50;99.90;;;;;;4139346;28;20689;-75
2021/06/07 07:43:31;;;;;;;36.87;24.50;;;20.60;99.90;;;;;;4131402;28;20635;-75
2021/06/07 07:45:32;;;;;;;41.13;25.67;;;20.60;99.90;;;;;;4135950;28;20246;-75
2021/06/07 07:47:34;;;;;;;38.57;25.33;;;20.60;99.90;;;;;;4138530;28;20212;-75
2021/06/07 07:49:36;;;;;;;36.27;24.37;;;20.60;99.90;;;;;;4140205;28;20222;-75
2021/06/07 07:51:37;;;;;;;33.10;23.30;;;20.60;99.90;;;;;;4135635;28;20393;-75
2021/06/07 07:53:40;;;;;;;34.10;24.07;;;20.70;99.90;;;;;;4140683;28;20653;-75
2021/06/07 07:55:41;;;;;;;37.80;25.93;;;20.70;99.90;;;;;;4139076;28;20218;-75
2021/06/07 07:57:42;;;;;;;35.93;24.40;;;20.70;99.90;;;;;;4136114;28;20434;-74
2021/06/07 07:59:43;;;;;;;46.07;26.40;;;20.70;99.90;;;;;;4123383;28;20261;-75
2021/06/07 08:01:45;;;;;;;64.93;35.87;;;20.70;99.90;;;;;;4142525;28;20803;-75
2021/06/07 08:03:46;;;;;;;81.33;49.90;;;20.70;99.90;;;;;;4135157;28;20689;-78
2021/06/07 08:05:48;;;;;;;66.00;39.23;;;20.80;99.90;;;;;;4139627;28;20681;-78
2021/06/07 08:07:49;;;;;;;45.37;29.30;;;20.90;99.90;;;;;;4127148;28;20207;-78
2021/06/07 08:09:51;;;;;;;36.03;24.03;;;20.90;99.90;;;;;;4137555;28;20251;-78
2021/06/07 08:11:53;;;;;;;34.40;23.40;;;20.90;99.90;;;;;;4137878;28;20234;-78
2021/06/07 08:13:54;;;;;;;33.90;22.87;;;21.00;99.90;;;;;;4133086;28;20224;-78
2021/06/07 08:15:55;;;;;;;30.10;21.87;;;21.10;99.90;;;;;;4132195;28;20712;-78
2021/06/07 08:17:57;;;;;;;30.57;21.83;;;21.20;99.90;;;;;;4136545;28;20242;-78
2021/06/07 08:19:58;;;;;;;32.70;22.43;;;21.30;99.90;;;;;;4135575;28;20218;-78
2021/06/07 08:21:59;;;;;;;30.70;20.67;;;21.40;99.90;;;;;;4130316;28;20564;-78
2021/06/07 08:24:01;;;;;;;30.87;21.30;;;21.60;99.80;;;;;;4136939;28;20227;-77
2021/06/07 08:26:05;;;;;;;37.97;22.10;;;21.70;99.50;;;;;;4140043;28;20575;-77
2021/06/07 08:28:06;;;;;;;29.23;21.23;;;21.80;99.20;;;;;;4140508;28;20219;-78
2021/06/07 08:30:09;;;;;;;31.23;21.93;;;21.80;98.10;;;;;;4139301;28;21776;-78
2021/06/07 08:32:10;;;;;;;30.27;21.93;;;21.80;98.00;;;;;;4135499;28;20909;-78
2021/06/07 08:34:11;;;;;;;34.10;22.73;;;21.70;97.60;;;;;;4131981;28;20212;-78
2021/06/07 08:36:13;;;;;;;35.50;23.10;;;21.60;98.20;;;;;;4133833;28;20212;-78
2021/06/07 08:38:14;;;;;;;32.40;22.30;;;21.60;98.10;;;;;;4127373;28;20819;-77
2021/06/07 08:40:17;;;;;;;30.47;21.13;;;21.70;98.30;;;;;;4129999;28;20610;-78
2021/06/07 08:42:20;;;;;;;32.20;21.87;;;21.60;98.40;;;;;;4130360;28;20239;-78
2021/06/07 08:44:21;;;;;;;32.77;22.40;;;21.70;98.10;;;;;;4132108;28;20286;-78
2021/06/07 08:46:22;;;;;;;34.90;22.90;;;21.70;98.20;;;;;;4136245;28;20211;-79
2021/06/07 08:48:23;;;;;;;35.50;22.80;;;21.70;98.30;;;;;;4137688;28;20217;-78
2021/06/07 08:50:26;;;;;;;36.80;23.63;;;21.70;98.00;;;;;;4136712;28;20200;-78
2021/06/07 08:52:28;;;;;;;35.97;22.37;;;21.70;98.30;;;;;;4140561;28;20231;-79
2021/06/07 08:54:30;;;;;;;32.57;21.00;;;21.80;98.20;;;;;;4136131;28;20960;-75
2021/06/07 08:56:31;;;;;;;46.93;32.73;;;21.90;97.40;;;;;;4136976;28;20257;-74
2021/06/07 08:58:33;;;;;;;43.87;30.80;;;21.90;97.50;;;;;;4142186;28;20939;-79
2021/06/07 09:00:38;;;;;;;34.13;23.23;;;22.00;97.30;;;;;;4138075;28;20558;-78
2021/06/07 09:02:40;;;;;;;30.47;21.13;;;22.00;96.80;;;;;;4140155;28;20298;-79
2021/06/07 09:04:47;;;;;;;28.27;20.33;;;22.00;96.40;;;;;;4139340;28;20212;-79
2021/06/07 09:06:50;;;;;;;28.50;19.93;;;22.00;96.30;;;;;;4136265;28;20215;-78
2021/06/07 09:09:04;;;;;;;26.70;20.20;;;22.10;96.10;;;;;;4139182;28;20221;-79
2021/06/07 09:11:07;;;;;;;27.97;20.00;;;22.10;96.10;;;;;;4140095;28;20669;-79
2021/06/07 09:13:11;;;;;;;29.37;19.97;;;22.10;96.00;;;;;;4135082;28;20227;-80
2021/06/07 09:15:28;;;;;;;27.27;19.00;;;22.20;95.90;;;;;;4133673;28;20212;-78
2021/06/07 09:17:30;;;;;;;25.43;18.87;;;22.20;96.10;;;;;;4132676;28;20217;-78
2021/06/07 09:19:32;;;;;;;26.03;17.87;;;22.40;96.00;;;;;;4134178;28;20210;-80
2021/06/07 09:21:33;;;;;;;24.97;17.93;;;22.50;95.20;;;;;;4131671;28;20251;-78
2021/06/07 09:23:40;;;;;;;26.80;18.00;;;22.50;95.10;;;;;;4137258;28;20217;-78
2021/06/07 09:25:44;;;;;;;24.90;17.27;;;22.60;95.40;;;;;;4133015;28;20369;-78
2021/06/07 09:28:02;;;;;;;25.57;16.87;;;22.60;95.10;;;;;;4133083;28;20252;-78
2021/06/07 09:30:25;;;;;;;26.57;18.00;;;22.70;95.20;;;;;;4137295;28;20725;-78
2021/06/07 09:32:26;;;;;;;25.60;17.73;;;22.80;95.20;;;;;;4138311;28;20729;-78
2021/06/07 09:34:29;;;;;;;23.03;17.20;;;22.90;94.90;;;;;;4138258;28;20702;-78
2021/06/07 09:36:33;;;;;;;25.63;17.53;;;23.10;94.80;;;;;;4141562;28;20590;-79
2021/06/07 09:38:35;;;;;;;23.90;16.90;;;23.20;94.40;;;;;;4140545;28;20299;-78
2021/06/07 09:40:36;;;;;;;22.80;16.30;;;23.50;93.10;;;;;;4142142;28;20674;-78
2021/06/07 09:42:53;;;;;;;24.10;17.00;;;23.50;92.90;;;;;;4130797;28;20547;-78
2021/06/07 09:44:55;;;;;;;21.17;16.37;;;23.60;93.00;;;;;;4138094;28;20220;-80
2021/06/07 09:47:09;;;;;;;20.10;16.03;;;23.70;91.60;;;;;;4142278;28;20215;-79
2021/06/07 09:49:13;;;;;;;25.00;17.57;;;23.60;91.40;;;;;;4143031;28;20305;-81
2021/06/07 09:51:19;;;;;;;25.13;17.50;;;23.60;92.00;;;;;;4139665;28;20216;-80
2021/06/07 09:53:40;;;;;;;22.33;16.33;;;23.60;92.60;;;;;;4136804;28;20673;-78
2021/06/07 09:55:42;;;;;;;20.37;15.27;;;23.80;92.50;;;;;;4151725;28;20671;-79
2021/06/07 09:57:49;;;;;;;21.57;16.03;;;23.90;92.40;;;;;;4154243;28;20220;-81
2021/06/07 09:59:50;;;;;;;20.10;15.90;;;24.00;92.00;;;;;;4141518;28;20528;-81
2021/06/07 10:01:52;;;;;;;23.27;16.67;;;24.20;91.60;;;;;;4145101;28;20274;-82
2021/06/07 10:03:56;;;;;;;21.20;15.77;;;24.20;90.80;;;;;;4143232;28;20216;-79
2021/06/07 10:06:00;;;;;;;21.50;15.60;;;24.30;90.70;;;;;;4143576;28;20228;-77
2021/06/07 10:08:01;;;;;;;16.80;14.13;;;24.50;90.90;;;;;;4141244;28;20216;-78
2021/06/07 10:10:14;;;;;;;18.63;14.30;;;24.70;90.80;;;;;;4143745;28;20238;-80
2021/06/07 10:12:24;;;;;;;19.33;13.73;;;24.90;90.50;;;;;;4145652;28;20231;-79
2021/06/07 10:14:26;;;;;;;19.07;14.87;;;25.10;88.40;;;;;;4140323;28;20294;-79
2021/06/07 10:16:27;;;;;;;21.27;15.37;;;25.20;87.20;;;;;;4146069;28;20218;-78
2021/06/07 10:18:28;;;;;;;20.57;15.20;;;25.20;85.60;;;;;;4141855;28;20212;-73
2021/06/07 10:23:02;;;;;;;19.47;14.63;;;25.40;87.10;;;;;;4075258;29;20249;-74